Flight Number: EUR1565 Duration: 1:30
Departure: Olbia Costa Smeralda (LIEO) at 06:30 Distance: 542 Nm
Arrival: Luxembourg (ELLX) at 08:00 Equipment: B737

Weather Information
Olbia / Costa Smeralda, Italy (LIEO) 40-54N 009-31E 13M Nov 18, 2017 - 06:50 AM EST / 2017.11.18 1150 UTC
Wind: from the NNE (020 degrees) at 7 MPH (6 KT) (direction variable):0
Visibility: greater than 7 mile(s):0
Sky conditions: partly cloudy Temperature: 60 F (16 C) Dew Point: 51 F (11 C) Relative Humidity: 72% Pressure (altimeter): 30.00 in. Hg (1016 hPa)
ob: LIEO 181150Z 02006KT 360V060 9999 SCT030 16/11 Q1016 cycle: 12
Sunrise: 06:16 Sunset: 15:57 (UTC)

Luxembourg / Luxembourg, Luxembourg (ELLX) 49-37N 006-13E 379M Nov 18, 2017 - 06:50 AM EST / 2017.11.18 1150 UTC
Wind: from the WSW (240 degrees) at 9 MPH (8 KT) (direction variable):0
Visibility: greater than 7 mile(s):0
Sky conditions: mostly cloudy Temperature: 37 F (3 C) Dew Point: 33 F (1 C) Relative Humidity: 86% Pressure (altimeter): 30.18 in. Hg (1022 hPa)
ob: ELLX 181150Z 24008KT 200V270 9999 FEW025 BKN029 03/01 Q1022 NOSIG cycle: 12
Sunrise: 06:56 Sunset: 15:44 (UTC)

TAF:2017/11/18 12:27 TAF ELLX 181100Z 1812/1918 23008KT 9999 BKN035 BECMG 1816/1819 4000 BR OVC006 TEMPO 1819/1908 1200 -DZ OVC002 BECMG 1908/1910 29012KT 9999 SCT025

Previous Pireps for this route
Date Aircraft Flight time Fuel used Landing rate On time
2016-05-16B73702.0810551-268No
(pireps marked green are flown by you)

Route map